Kinsley, Kansas
Current Conditions -  °F | °C
As of 3:52 PM on Sunday 25 Jan 2015 (Local Time) from KDDC Reporting Station
Clear Clear  
Wind Chill: 55°   Ceiling: Unl
Heat Index: 55°   Visibility: 10mi
Dew Point: 17°   Wind: 16mph
Humidity: 23%   Direction: 350°N
Pressure: 30.08"   Gusts: 30mph
Location:  37.92°N, 99.41°W
Report Text: KDDC 252152Z AUTO 35014G26KT 10SM CLR 13/M08 A3008 RMK AO2 PK WND 35030/2116 SLP183 T01281083
Loading
Personal Weather Stations






























Interactive Weather Map New forecast layout! Learn more

10-Day Weather Forecast

Advertisements
Track Severe Weather on mobile